Sunday, August 19, 2018, 12:26 AM GMT
Back to Local

CYTR, Trenton, Ont.

Location: , , Canada Lat: 44.117
Local Time: 12:26 AM GMT ( 0:26 GMT) Lon: -77.533
Time Zone: GMT Elev: 278 ft

Show me the last for .
Show Decoded

2018-08-19 00:00 METAR CYTR 190000Z 35004KT 15SM FEW047 BKN200 OVC220 21/17 A2995 RMK SC1CS7CI1
                 SLP144 =
2018-08-18 23:00 METAR CYTR 182300Z 36006KT 15SM SCT045 OVC220 23/17 A2995 RMK SC4CS4 SLP141 =
2018-08-18 22:00 METAR CYTR 182200Z 01006KT 15SM SCT034 OVC220 24/17 A2994 RMK SC3CS5 SLP139 =
2018-08-18 21:00 METAR CYTR 182100Z 02005KT 15SM SCT036 OVC220 25/17 A2993 RMK SC3CS5 SLP137 =
2018-08-18 20:00 METAR CYTR 182000Z 03005KT 15SM SCT036 OVC220 25/17 A2994 RMK SC3CS5 SLP138 =
2018-08-18 19:00 METAR CYTR 181900Z 03008KT 15SM SCT033 OVC220 25/17 A2994 RMK SC3CS5 SLP138 =
2018-08-18 18:00 METAR CYTR 181800Z 05010KT 15SM FEW030 OVC220 24/16 A2994 RMK SC2CS6 SLP139 =
2018-08-18 17:00 METAR CYTR 181700Z 03012G17KT 15SM FEW030 OVC220 23/16 A2994 RMK SC2CS6 SLP140 =
2018-08-18 16:00 METAR CYTR 181600Z 05009KT 15SM FEW030 OVC220 23/16 A2995 RMK SC1CS7 SLP143 =
2018-08-18 15:00 METAR CYTR 181500Z 04013KT 15SM FEW020 SCT220 22/15 A2995 RMK SC1CI4 SLP143 =
2018-08-18 14:00 METAR CYTR 181400Z 02011G16KT 15SM FEW020 FEW220 21/16 A2995 RMK SC1CI2 SLP142 =
2018-08-18 13:00 METAR CYTR 181300Z 03013KT 15SM FEW020 FEW150 SCT220 20/15 A2995 RMK SC1AC1CI3
                 SLP141 =
2018-08-18 12:00 METAR CYTR 181200Z 03006KT 15SM FEW020 SCT100 BKN150 18/16 A2994 RMK SC1AC3AC2
                 SLP140 =
2018-08-18 11:00 METAR CYTR 181100Z 03002KT 15SM FEW020 BKN100 BKN150 17/15 A2993 RMK SC1AC5AC2
                 SLP136 =
2018-08-18 10:00 METAR CYTR 181000Z 03003KT 15SM SCT140 OVC180 17/15 A2992 RMK AC4AC4 SLP134 =
2018-08-18 09:00 METAR CYTR 180900Z 36004KT 15SM OVC140 18/16 A2991 RMK AC8 SLP129 =
2018-08-18 08:00 METAR CYTR 180800Z 00000KT 15SM BKN100 18/16 A2992 RMK AC7 SLP131 =
2018-08-18 07:00 METAR CYTR 180700Z 35003KT 15SM SCT100 OVC150 19/17 A2991 RMK AC3AC5 SLP128 =
2018-08-18 06:00 METAR CYTR 180600Z 36007KT 15SM SCT100 BKN150 20/17 A2990 RMK AC3AC3 SLP127 =
2018-08-18 05:00 METAR CYTR 180500Z 03004KT 15SM BKN100 OVC150 20/18 A2990 RMK AC7AC1 SLP125 =
2018-08-18 04:42 METAR CYTR 180442Z 04006KT 15SM FEW070 OVC100 20/18 A2989 RMK AC1AC7 SLP123 =
2018-08-18 04:00 METAR CYTR 180400Z 03006KT 15SM -SHRA FEW035 BKN067 OVC120 21/19 A2990 RMK
                 SC2AC5AC2 PCPN VRY LGT SLP126 =
2018-08-18 03:35 METAR CYTR 180335Z 02004KT 12SM -SHRA SCT034 OVC067 21/19 A2990 RMK SC4AC4
                 SLP127 =
2018-08-18 03:00 METAR CYTR 180300Z 00000KT 12SM -SHRA BKN018 OVC030 21/19 A2989 RMK SC7SC1
                 SLP122 =
2018-08-18 02:43 METAR CYTR 180243Z 04008KT 15SM -SHRA BKN032 OVC062 22/19 A2988 RMK SC6SC2
                 SLP118 =
2018-08-18 02:00 METAR CYTR 180200Z 03005KT 15SM BKN045 OVC140 22/19 A2989 RMK SC5AC3 SLP122 =
2018-08-18 01:33 METAR CYTR 180133Z 05004KT 15SM BKN040 OVC060 22/20 A2989 RMK SC6SC2 CB EMBD
                 DIST SE MOVG E OCNL LTGIC SLP120 =
2018-08-18 01:00 METAR CYTR 180100Z 05005KT 15SM TS BKN028 OVC063 23/20 A2988 RMK SC6SC2 CB EMBD
                 SE MOVG E OCNL LTGIC SLP117 =

Support USWX by starting your Amazon purchase here.